createdAt,value
2022-08-25T00:00:37.693Z,20.25
2022-08-25T00:01:46.935Z,20.24
2022-08-25T00:02:55.197Z,20.23
2022-08-25T00:04:01.867Z,20.23
2022-08-25T00:05:06.583Z,20.20
2022-08-25T00:06:09.913Z,20.22
2022-08-25T00:07:13.300Z,20.20
2022-08-25T00:08:20.670Z,20.21
2022-08-25T00:09:27.698Z,20.20
2022-08-25T00:10:30.342Z,20.19
2022-08-25T00:11:35.109Z,20.19
2022-08-25T00:12:37.209Z,20.17
2022-08-25T00:13:43.044Z,20.17
2022-08-25T00:14:46.238Z,20.15
2022-08-25T00:15:48.477Z,20.15
2022-08-25T00:16:51.927Z,20.13
2022-08-25T00:17:59.999Z,20.11
2022-08-25T00:19:07.889Z,20.10
2022-08-25T00:20:10.909Z,20.09
2022-08-25T00:21:15.334Z,20.07
2022-08-25T00:22:17.518Z,20.07
2022-08-25T00:23:20.800Z,20.04
2022-08-25T00:24:23.543Z,20.01
2022-08-25T00:25:27.034Z,20.02
2022-08-25T00:26:29.935Z,19.99
2022-08-25T00:27:33.090Z,19.99
2022-08-25T00:28:35.691Z,19.98
2022-08-25T00:29:39.174Z,19.97
2022-08-25T00:30:41.331Z,19.96
2022-08-25T00:31:45.894Z,19.95
2022-08-25T00:32:52.522Z,19.94
2022-08-25T00:34:01.283Z,19.94
2022-08-25T00:35:05.582Z,19.91
2022-08-25T00:36:09.635Z,19.90
2022-08-25T00:37:12.876Z,19.89
2022-08-25T00:38:16.639Z,19.88
2022-08-25T00:39:21.203Z,19.87
2022-08-25T00:40:26.291Z,19.86
2022-08-25T00:41:29.525Z,19.83
2022-08-25T00:42:32.115Z,19.82
2022-08-25T00:43:38.555Z,19.82
2022-08-25T00:44:40.726Z,19.80
2022-08-25T00:45:43.907Z,19.79
2022-08-25T00:46:48.128Z,19.79
2022-08-25T00:47:51.327Z,19.79
2022-08-25T00:48:58.148Z,19.77
2022-08-25T00:50:04.051Z,19.76
2022-08-25T00:51:11.830Z,19.75
2022-08-25T00:52:19.566Z,19.72
2022-08-25T00:53:22.003Z,19.72
2022-08-25T00:54:29.587Z,19.71
2022-08-25T00:55:39.257Z,19.69
2022-08-25T00:56:42.941Z,19.69
2022-08-25T00:57:48.348Z,19.67
2022-08-25T00:58:52.047Z,19.67
2022-08-25T00:59:54.903Z,19.65
2022-08-25T01:00:59.821Z,19.63
2022-08-25T01:02:03.854Z,19.63
2022-08-25T01:03:06.718Z,19.62
2022-08-25T01:04:10.198Z,19.62
2022-08-25T01:05:12.674Z,19.59
2022-08-25T01:06:17.409Z,19.59
2022-08-25T01:07:22.246Z,19.58
2022-08-25T01:08:28.877Z,19.56
2022-08-25T01:09:32.652Z,19.55
2022-08-25T01:10:37.647Z,19.52
2022-08-25T01:11:40.626Z,19.51
2022-08-25T01:12:43.898Z,19.50
2022-08-25T01:13:52.779Z,19.50
2022-08-25T01:14:57.860Z,19.49
2022-08-25T01:16:00.536Z,19.48
2022-08-25T01:17:03.904Z,19.46
2022-08-25T01:18:06.403Z,19.45
2022-08-25T01:19:14.371Z,19.44
2022-08-25T01:20:20.251Z,19.43
2022-08-25T01:21:27.715Z,19.39
2022-08-25T01:22:29.866Z,19.38
2022-08-25T01:23:33.066Z,19.38
2022-08-25T01:24:42.163Z,19.36
2022-08-25T01:25:51.813Z,19.34
2022-08-25T01:26:54.972Z,19.33
2022-08-25T01:27:57.157Z,19.33
2022-08-25T01:29:18.626Z,19.31
2022-08-25T01:30:21.808Z,19.29
2022-08-25T01:31:24.441Z,19.28
2022-08-25T01:32:27.765Z,19.27
2022-08-25T01:33:29.983Z,19.27
2022-08-25T01:34:36.276Z,19.23
2022-08-25T01:35:39.722Z,19.24
2022-08-25T01:36:46.213Z,19.23
2022-08-25T01:37:48.467Z,19.21
2022-08-25T01:38:51.730Z,19.20
2022-08-25T01:39:54.532Z,19.20
2022-08-25T01:40:57.731Z,19.19
2022-08-25T01:42:13.627Z,19.18
2022-08-25T01:43:26.851Z,19.16
2022-08-25T01:44:29.384Z,19.16
2022-08-25T01:45:32.578Z,19.16
2022-08-25T01:46:34.884Z,19.15
2022-08-25T01:47:39.093Z,19.15
2022-08-25T01:48:41.203Z,19.14
2022-08-25T01:49:44.670Z,19.13
2022-08-25T01:50:47.037Z,19.12
2022-08-25T01:51:56.941Z,19.11
2022-08-25T01:53:03.943Z,19.09
2022-08-25T01:54:07.527Z,19.09
2022-08-25T01:55:09.748Z,19.07
2022-08-25T01:56:15.118Z,19.06
2022-08-25T01:57:18.614Z,19.05
2022-08-25T01:58:23.678Z,19.05
2022-08-25T01:59:26.617Z,19.03
2022-08-25T02:00:29.996Z,19.02
2022-08-25T02:01:32.359Z,19.00
2022-08-25T02:02:35.543Z,18.99
2022-08-25T02:03:42.372Z,18.99
2022-08-25T02:04:45.602Z,18.98
2022-08-25T02:05:48.694Z,18.97
2022-08-25T02:06:53.711Z,18.96
2022-08-25T02:07:55.880Z,18.94
2022-08-25T02:09:01.891Z,18.92
2022-08-25T02:10:06.354Z,18.93
2022-08-25T02:11:12.170Z,18.93
2022-08-25T02:12:15.490Z,18.92
2022-08-25T02:13:18.849Z,18.91
2022-08-25T02:14:22.179Z,18.91
2022-08-25T02:15:24.429Z,18.90
2022-08-25T02:16:32.164Z,18.91
2022-08-25T02:17:36.621Z,18.89
2022-08-25T02:18:39.800Z,18.89
2022-08-25T02:19:41.961Z,18.87
2022-08-25T02:20:45.186Z,18.88
2022-08-25T02:21:47.960Z,18.87
2022-08-25T02:22:56.949Z,18.86
2022-08-25T02:23:59.987Z,18.84
2022-08-25T02:25:04.112Z,18.84
2022-08-25T02:26:06.440Z,18.80
2022-08-25T02:27:10.668Z,18.82
2022-08-25T02:28:13.552Z,18.81
2022-08-25T02:29:16.984Z,18.78
2022-08-25T02:30:20.064Z,18.79
2022-08-25T02:31:25.633Z,18.77
2022-08-25T02:32:27.976Z,18.76
2022-08-25T02:33:31.230Z,18.75
2022-08-25T02:34:33.630Z,18.73
2022-08-25T02:35:37.409Z,18.73
2022-08-25T02:36:40.191Z,18.72
2022-08-25T02:37:43.370Z,18.72
2022-08-25T02:38:47.244Z,18.70
2022-08-25T02:39:50.507Z,18.69
2022-08-25T02:40:52.696Z,18.69
2022-08-25T02:41:55.825Z,18.67
2022-08-25T02:42:58.018Z,18.68
2022-08-25T02:44:01.395Z,18.66
2022-08-25T02:45:04.613Z,18.65
2022-08-25T02:46:07.788Z,18.65
2022-08-25T02:47:10.105Z,18.65
2022-08-25T02:48:13.590Z,18.64
2022-08-25T02:49:17.005Z,18.63
2022-08-25T02:50:19.495Z,18.62
2022-08-25T02:51:23.895Z,18.62
2022-08-25T02:52:26.121Z,18.56
2022-08-25T02:53:30.391Z,18.60
2022-08-25T02:54:33.981Z,18.59
2022-08-25T02:55:37.490Z,18.59
2022-08-25T02:56:42.421Z,18.57
2022-08-25T02:57:46.548Z,18.57
2022-08-25T02:58:49.757Z,18.53
2022-08-25T02:59:51.986Z,18.54
2022-08-25T03:00:56.079Z,18.53
2022-08-25T03:01:59.585Z,18.52
2022-08-25T03:03:01.967Z,18.51
2022-08-25T03:04:05.476Z,18.51
2022-08-25T03:05:09.416Z,18.50
2022-08-25T03:06:14.167Z,18.46
2022-08-25T03:07:17.705Z,18.49
2022-08-25T03:08:21.295Z,18.47
2022-08-25T03:09:23.490Z,18.47
2022-08-25T03:10:28.268Z,18.46
2022-08-25T03:11:31.426Z,18.44
2022-08-25T03:12:35.361Z,18.43
2022-08-25T03:13:37.999Z,18.43
2022-08-25T03:14:41.596Z,18.42
2022-08-25T03:15:46.265Z,18.40
2022-08-25T03:16:52.559Z,18.40
2022-08-25T03:17:57.705Z,18.38
2022-08-25T03:19:03.780Z,18.33
2022-08-25T03:20:08.861Z,18.36
2022-08-25T03:21:13.422Z,18.36
2022-08-25T03:22:17.962Z,18.34
2022-08-25T03:23:21.666Z,18.34
2022-08-25T03:24:24.481Z,18.33
2022-08-25T03:25:43.187Z,18.33
2022-08-25T03:26:55.908Z,18.31
2022-08-25T03:27:58.223Z,18.29
2022-08-25T03:29:05.115Z,18.28
2022-08-25T03:30:08.644Z,18.27
2022-08-25T03:31:11.896Z,18.27
2022-08-25T03:32:14.175Z,18.21
2022-08-25T03:33:17.575Z,18.25
2022-08-25T03:34:20.834Z,18.20
2022-08-25T03:35:24.979Z,18.16
2022-08-25T03:36:28.695Z,18.19
2022-08-25T03:37:31.084Z,18.22
2022-08-25T03:38:35.004Z,18.20
2022-08-25T03:39:37.315Z,18.20
2022-08-25T03:40:41.959Z,18.19
2022-08-25T03:41:45.000Z,18.19
2022-08-25T03:42:48.493Z,18.18
2022-08-25T03:43:51.627Z,18.17
2022-08-25T03:44:55.086Z,18.17
2022-08-25T03:45:57.394Z,18.15
2022-08-25T03:47:00.721Z,18.15
2022-08-25T03:48:03.254Z,18.13
2022-08-25T03:49:09.471Z,18.11
2022-08-25T03:50:12.637Z,18.11
2022-08-25T03:51:21.526Z,18.10
2022-08-25T03:52:23.925Z,18.10
2022-08-25T03:53:27.262Z,18.08
2022-08-25T03:54:29.845Z,18.07
2022-08-25T03:55:33.221Z,18.07
2022-08-25T03:56:38.028Z,18.06
2022-08-25T03:57:41.602Z,18.02
2022-08-25T03:58:43.934Z,18.05
2022-08-25T03:59:47.116Z,18.04
2022-08-25T04:00:49.354Z,18.05
2022-08-25T04:01:55.142Z,18.04
2022-08-25T04:02:57.655Z,18.02
2022-08-25T04:04:00.826Z,18.02
2022-08-25T04:05:03.101Z,18.01
2022-08-25T04:06:08.984Z,18.01
2022-08-25T04:07:11.246Z,18.00
2022-08-25T04:08:14.878Z,17.99
2022-08-25T04:09:17.051Z,17.98
2022-08-25T04:10:20.531Z,17.97
2022-08-25T04:11:23.963Z,17.97
2022-08-25T04:12:28.570Z,17.95
2022-08-25T04:13:31.347Z,17.94
2022-08-25T04:14:34.661Z,17.95
2022-08-25T04:15:36.838Z,17.94
2022-08-25T04:16:40.074Z,17.94
2022-08-25T04:17:42.276Z,17.93
2022-08-25T04:18:45.943Z,17.93
2022-08-25T04:19:48.153Z,17.92
2022-08-25T04:20:51.384Z,17.92
2022-08-25T04:21:56.730Z,17.90
2022-08-25T04:23:01.397Z,17.91
2022-08-25T04:24:04.168Z,17.90
2022-08-25T04:25:08.421Z,17.89
2022-08-25T04:26:11.450Z,17.89
2022-08-25T04:27:14.602Z,17.89
2022-08-25T04:28:18.131Z,17.88
2022-08-25T04:29:23.818Z,17.87
2022-08-25T04:30:26.146Z,17.85
2022-08-25T04:31:30.914Z,17.86
2022-08-25T04:32:33.134Z,17.85
2022-08-25T04:33:36.730Z,17.81
2022-08-25T04:34:39.112Z,17.87
2022-08-25T04:35:42.287Z,17.86
2022-08-25T04:36:44.671Z,17.84
2022-08-25T04:37:55.806Z,17.85
2022-08-25T04:38:58.074Z,17.83
2022-08-25T04:40:01.389Z,17.86
2022-08-25T04:41:06.158Z,17.86
2022-08-25T04:42:09.543Z,17.85
2022-08-25T04:43:11.659Z,17.85
2022-08-25T04:44:16.273Z,17.85
2022-08-25T04:45:18.814Z,17.87
2022-08-25T04:46:24.647Z,17.86
2022-08-25T04:47:28.154Z,17.86
2022-08-25T04:48:32.762Z,17.86
2022-08-25T04:49:36.014Z,17.88
2022-08-25T04:50:40.109Z,17.89
2022-08-25T04:51:42.681Z,17.88
2022-08-25T04:52:46.158Z,17.88
2022-08-25T04:53:48.319Z,17.88
2022-08-25T04:54:51.635Z,17.89
2022-08-25T04:55:53.769Z,17.89
2022-08-25T04:56:58.312Z,17.90
2022-08-25T04:58:01.133Z,17.91
2022-08-25T04:59:06.834Z,17.92
2022-08-25T05:00:11.910Z,17.93
2022-08-25T05:01:17.851Z,17.93
2022-08-25T05:02:20.080Z,17.94
2022-08-25T05:03:23.266Z,17.96
2022-08-25T05:04:28.299Z,17.96
2022-08-25T05:05:32.805Z,17.96
2022-08-25T05:06:36.097Z,17.97
2022-08-25T05:07:39.367Z,17.98
2022-08-25T05:08:41.576Z,17.99
2022-08-25T05:09:44.688Z,18.00
2022-08-25T05:10:46.830Z,18.01
2022-08-25T05:11:50.195Z,18.03
2022-08-25T05:12:52.611Z,18.04
2022-08-25T05:13:58.292Z,18.05
2022-08-25T05:15:21.010Z,18.07
2022-08-25T05:16:27.238Z,18.07
2022-08-25T05:17:29.414Z,18.09
2022-08-25T05:18:35.481Z,18.10
2022-08-25T05:19:38.732Z,18.12
2022-08-25T05:20:40.888Z,18.14
2022-08-25T05:21:44.162Z,18.16
2022-08-25T05:22:46.649Z,18.17
2022-08-25T05:23:50.132Z,18.19
2022-08-25T05:24:52.332Z,18.20
2022-08-25T05:25:55.813Z,18.22
2022-08-25T05:26:59.253Z,18.23
2022-08-25T05:28:01.938Z,18.24
2022-08-25T05:29:06.191Z,18.25
2022-08-25T05:30:09.865Z,18.28
2022-08-25T05:31:15.246Z,18.30
2022-08-25T05:32:20.000Z,18.31
2022-08-25T05:33:41.044Z,18.33
2022-08-25T05:34:44.339Z,18.35
2022-08-25T05:35:46.564Z,18.37
2022-08-25T05:36:51.215Z,18.38
2022-08-25T05:37:53.399Z,18.40
2022-08-25T05:38:57.034Z,18.42
2022-08-25T05:39:59.314Z,18.45
2022-08-25T05:41:05.308Z,18.47
2022-08-25T05:42:08.775Z,18.49
2022-08-25T05:43:12.361Z,18.50
2022-08-25T05:44:20.905Z,18.54
2022-08-25T05:45:24.227Z,18.55
2022-08-25T05:46:27.554Z,18.57
2022-08-25T05:47:35.315Z,18.58
2022-08-25T05:48:38.711Z,18.57
2022-08-25T05:49:40.838Z,18.62
2022-08-25T05:50:51.707Z,18.63
2022-08-25T05:51:54.912Z,18.65
2022-08-25T05:52:57.078Z,18.67
2022-08-25T05:54:00.249Z,18.70
2022-08-25T05:55:02.465Z,18.72
2022-08-25T05:56:05.830Z,18.74
2022-08-25T05:57:09.225Z,18.75
2022-08-25T05:58:12.462Z,18.79
2022-08-25T05:59:16.499Z,18.81
2022-08-25T06:00:19.917Z,18.84
2022-08-25T06:01:45.096Z,18.85
2022-08-25T06:02:49.731Z,18.88
2022-08-25T06:03:54.396Z,18.88
2022-08-25T06:04:58.315Z,18.93
2022-08-25T06:06:06.933Z,18.97
2022-08-25T06:07:10.458Z,18.98
2022-08-25T06:08:12.706Z,18.99
2022-08-25T06:09:16.254Z,19.01
2022-08-25T06:10:20.213Z,19.03
2022-08-25T06:11:23.870Z,19.05
2022-08-25T06:12:27.068Z,19.07
2022-08-25T06:13:30.265Z,19.07
2022-08-25T06:14:32.447Z,19.10
2022-08-25T06:15:35.586Z,19.12
2022-08-25T06:16:38.846Z,19.13
2022-08-25T06:17:43.088Z,19.13
2022-08-25T06:18:46.632Z,19.14
2022-08-25T06:19:49.767Z,19.14
2022-08-25T06:20:53.471Z,19.12
2022-08-25T06:21:57.767Z,19.13
2022-08-25T06:23:01.823Z,19.11
2022-08-25T06:24:04.628Z,19.12
2022-08-25T06:25:09.494Z,19.11
2022-08-25T06:26:21.186Z,19.12
2022-08-25T06:27:24.768Z,19.13
2022-08-25T06:28:27.050Z,19.13
2022-08-25T06:29:30.227Z,19.14
2022-08-25T06:30:33.395Z,19.13
2022-08-25T06:31:35.604Z,19.14
2022-08-25T06:32:40.312Z,19.13
2022-08-25T06:33:42.557Z,19.14
2022-08-25T06:34:47.320Z,19.15
2022-08-25T06:35:53.331Z,19.18
2022-08-25T06:36:56.551Z,19.21
2022-08-25T06:38:00.896Z,19.24
2022-08-25T06:39:04.517Z,19.27
2022-08-25T06:40:08.779Z,19.30
2022-08-25T06:41:12.581Z,19.36
2022-08-25T06:42:14.734Z,19.41
2022-08-25T06:43:17.927Z,19.45
2022-08-25T06:44:20.254Z,19.52
2022-08-25T06:45:23.437Z,19.57
2022-08-25T06:46:36.152Z,19.62
2022-08-25T06:47:38.818Z,19.69
2022-08-25T06:48:42.643Z,19.72
2022-08-25T06:49:46.749Z,19.78
2022-08-25T06:50:49.910Z,19.82
2022-08-25T06:51:52.133Z,19.84
2022-08-25T06:52:55.497Z,19.88
2022-08-25T06:53:57.623Z,19.91
2022-08-25T06:55:01.305Z,19.89
2022-08-25T06:56:06.604Z,19.94
2022-08-25T06:57:10.742Z,19.95
2022-08-25T06:58:12.950Z,19.95
2022-08-25T06:59:17.542Z,19.95
2022-08-25T07:00:21.156Z,19.94
2022-08-25T07:01:27.230Z,19.92
2022-08-25T07:02:30.799Z,19.91
2022-08-25T07:03:37.716Z,19.90
2022-08-25T07:04:41.146Z,19.88
2022-08-25T07:05:52.485Z,19.90
2022-08-25T07:06:55.809Z,19.91
2022-08-25T07:07:58.035Z,19.94
2022-08-25T07:09:01.417Z,19.98
2022-08-25T07:10:04.108Z,20.03
2022-08-25T07:11:08.027Z,20.07
2022-08-25T07:12:19.721Z,20.08
2022-08-25T07:13:22.218Z,20.14
2022-08-25T07:14:25.369Z,20.15
2022-08-25T07:15:28.539Z,20.18
2022-08-25T07:16:31.796Z,20.19
2022-08-25T07:17:35.048Z,20.21
2022-08-25T07:18:38.568Z,20.22
2022-08-25T07:19:41.724Z,20.24
2022-08-25T07:20:45.863Z,20.26
2022-08-25T07:21:53.218Z,20.26
2022-08-25T07:22:55.457Z,20.24
2022-08-25T07:24:00.268Z,20.22
2022-08-25T07:25:03.512Z,20.24
2022-08-25T07:26:21.526Z,20.23
2022-08-25T07:27:34.987Z,20.21
2022-08-25T07:28:37.500Z,20.23
2022-08-25T07:29:51.224Z,20.23
2022-08-25T07:30:53.398Z,20.24
2022-08-25T07:31:56.699Z,20.27
2022-08-25T07:33:00.060Z,20.29
2022-08-25T07:34:23.190Z,20.33
2022-08-25T07:35:27.398Z,20.37
2022-08-25T07:36:41.324Z,20.41
2022-08-25T07:37:49.269Z,20.44
2022-08-25T07:38:52.363Z,20.47
2022-08-25T07:39:55.897Z,20.51
2022-08-25T07:41:03.948Z,20.51
2022-08-25T07:42:12.013Z,20.54
2022-08-25T07:43:15.411Z,20.58
2022-08-25T07:44:18.388Z,20.61
2022-08-25T07:45:29.624Z,20.64
2022-08-25T07:46:31.855Z,20.67
2022-08-25T07:47:37.071Z,20.71
2022-08-25T07:48:40.476Z,20.76
2022-08-25T07:49:42.685Z,20.80
2022-08-25T07:50:46.593Z,20.86
2022-08-25T07:52:05.647Z,20.92
2022-08-25T07:53:10.355Z,20.97
2022-08-25T07:54:12.843Z,20.98
2022-08-25T07:55:17.941Z,21.03
2022-08-25T07:56:21.420Z,21.01
2022-08-25T07:57:26.343Z,21.06
2022-08-25T07:58:30.045Z,21.08
2022-08-25T07:59:39.191Z,21.10
2022-08-25T08:00:43.374Z,21.13
2022-08-25T08:01:45.570Z,21.15
2022-08-25T08:02:48.992Z,21.20
2022-08-25T08:03:52.373Z,21.22
2022-08-25T08:04:55.585Z,21.24
2022-08-25T08:05:58.151Z,21.26
2022-08-25T08:07:02.744Z,21.26
2022-08-25T08:08:05.103Z,21.28
2022-08-25T08:09:08.425Z,21.29
2022-08-25T08:11:45.154Z,21.26
2022-08-25T08:12:55.693Z,21.24
2022-08-25T08:13:59.382Z,21.23
2022-08-25T08:15:02.744Z,21.21
2022-08-25T08:16:10.411Z,21.23
2022-08-25T08:17:13.825Z,21.21
2022-08-25T08:18:18.470Z,21.27
2022-08-25T08:19:23.123Z,21.27
2022-08-25T08:20:27.388Z,21.30
2022-08-25T08:21:35.078Z,21.35
2022-08-25T08:22:42.091Z,21.37
2022-08-25T08:23:44.443Z,21.33
2022-08-25T08:24:54.438Z,21.38
2022-08-25T08:25:58.891Z,21.38
2022-08-25T08:27:02.791Z,21.39
2022-08-25T08:28:07.123Z,21.40
2022-08-25T08:29:10.852Z,21.44
2022-08-25T08:30:15.401Z,21.43
2022-08-25T08:31:19.657Z,21.50
2022-08-25T08:32:32.422Z,21.54
2022-08-25T08:33:43.745Z,21.58
2022-08-25T08:34:51.298Z,21.57
2022-08-25T08:35:59.347Z,21.58
2022-08-25T08:37:02.045Z,21.60
2022-08-25T08:38:14.953Z,21.63
2022-08-25T08:39:20.653Z,21.65
2022-08-25T08:40:24.683Z,21.66
2022-08-25T08:42:11.156Z,21.65
2022-08-25T08:43:19.831Z,21.63
2022-08-25T08:44:28.170Z,21.60
2022-08-25T08:45:40.208Z,21.58
2022-08-25T08:46:55.051Z,21.54
2022-08-25T08:48:19.651Z,21.55
2022-08-25T08:49:31.753Z,21.55
2022-08-25T08:50:42.196Z,21.55
2022-08-25T08:51:54.172Z,21.57
2022-08-25T08:53:03.524Z,21.59
2022-08-25T08:54:15.533Z,21.59
2022-08-25T08:55:27.190Z,21.60
2022-08-25T08:56:37.659Z,21.62
2022-08-25T08:57:51.679Z,21.63
2022-08-25T08:59:00.577Z,21.64
2022-08-25T09:00:07.966Z,21.65
2022-08-25T09:01:13.732Z,21.69
2022-08-25T09:02:39.614Z,21.74
2022-08-25T09:03:55.714Z,21.82
2022-08-25T09:05:01.507Z,21.86
2022-08-25T09:06:08.915Z,21.93
2022-08-25T09:07:17.839Z,21.96
2022-08-25T09:08:24.010Z,21.96
2022-08-25T09:09:36.011Z,21.98
2022-08-25T09:10:54.206Z,21.98
2022-08-25T09:12:10.952Z,22.01
2022-08-25T09:13:26.061Z,21.97
2022-08-25T09:14:46.178Z,21.97
2022-08-25T09:16:31.899Z,22.01
2022-08-25T09:17:44.124Z,22.04
2022-08-25T09:19:08.471Z,22.04
2022-08-25T09:20:30.497Z,22.06
2022-08-25T09:21:40.767Z,22.09
2022-08-25T09:23:01.161Z,22.12
2022-08-25T09:24:27.615Z,22.16
2022-08-25T09:25:52.707Z,22.16
2022-08-25T09:27:07.628Z,22.21
2022-08-25T09:28:26.931Z,22.23
2022-08-25T09:29:42.463Z,22.29
2022-08-25T09:30:50.850Z,22.35
2022-08-25T09:31:57.873Z,22.39
2022-08-25T09:33:05.137Z,22.46
2022-08-25T09:34:13.522Z,22.50
2022-08-25T09:35:20.670Z,22.55
2022-08-25T09:36:23.972Z,22.59
2022-08-25T09:37:26.183Z,22.62
2022-08-25T09:38:32.063Z,22.67
2022-08-25T09:39:34.241Z,22.72
2022-08-25T09:40:42.535Z,22.79
2022-08-25T09:41:51.213Z,22.88
2022-08-25T09:42:58.756Z,22.96
2022-08-25T09:44:01.109Z,23.05
2022-08-25T09:45:05.434Z,23.12
2022-08-25T09:46:12.903Z,23.19
2022-08-25T09:47:24.083Z,23.24
2022-08-25T09:48:28.710Z,23.29
2022-08-25T09:49:41.380Z,23.35
2022-08-25T09:50:46.815Z,23.40
2022-08-25T09:51:52.762Z,23.42
2022-08-25T09:52:55.078Z,23.43
2022-08-25T09:54:01.550Z,23.43
2022-08-25T09:55:27.507Z,23.43
2022-08-25T09:56:34.047Z,23.42
2022-08-25T09:57:37.885Z,23.43
2022-08-25T09:58:41.437Z,23.44
2022-08-25T09:59:57.645Z,23.44
2022-08-25T10:01:05.125Z,23.44
2022-08-25T10:02:26.439Z,23.44
2022-08-25T10:03:30.704Z,23.49
2022-08-25T10:04:40.277Z,23.51
2022-08-25T10:06:00.964Z,23.53
2022-08-25T10:07:20.002Z,23.58
2022-08-25T10:08:30.423Z,23.59
2022-08-25T10:09:39.444Z,23.63
2022-08-25T10:10:46.534Z,23.67
2022-08-25T10:11:52.690Z,23.72
2022-08-25T10:13:01.197Z,23.78
2022-08-25T10:14:16.154Z,23.83
2022-08-25T10:15:30.052Z,23.89
2022-08-25T10:16:36.123Z,23.95
2022-08-25T10:17:39.616Z,24.01
2022-08-25T10:18:42.926Z,24.05
2022-08-25T10:19:45.287Z,24.09
2022-08-25T10:21:09.762Z,24.16
2022-08-25T10:22:24.403Z,24.17
2022-08-25T10:23:28.054Z,24.23
2022-08-25T10:24:35.079Z,24.28
2022-08-25T10:25:57.921Z,24.32
2022-08-25T10:27:17.034Z,24.42
2022-08-25T10:28:29.622Z,24.49
2022-08-25T10:29:53.209Z,24.56
2022-08-25T10:31:01.651Z,24.65
2022-08-25T10:32:12.316Z,24.69
2022-08-25T10:33:27.730Z,24.77
2022-08-25T10:34:44.606Z,24.84
2022-08-25T10:35:57.488Z,24.91
2022-08-25T10:37:13.507Z,24.92
2022-08-25T10:38:36.110Z,25.01
2022-08-25T10:39:43.583Z,25.07
2022-08-25T10:40:53.765Z,25.12
2022-08-25T10:42:05.241Z,25.16
2022-08-25T10:43:19.227Z,25.19
2022-08-25T10:44:53.534Z,25.25
2022-08-25T10:46:11.292Z,25.30
2022-08-25T10:47:35.092Z,25.37
2022-08-25T10:48:51.948Z,25.41
2022-08-25T10:49:56.659Z,25.47
2022-08-25T10:51:07.220Z,25.50
2022-08-25T10:52:17.549Z,25.54
2022-08-25T10:53:29.046Z,25.60
2022-08-25T10:54:37.367Z,25.64
2022-08-25T10:55:50.668Z,25.68
2022-08-25T10:57:07.111Z,25.78
2022-08-25T10:58:23.365Z,25.88
2022-08-25T10:59:43.985Z,25.97
2022-08-25T11:00:53.411Z,26.05
2022-08-25T11:02:28.444Z,26.17
2022-08-25T11:03:45.944Z,26.31
2022-08-25T11:04:55.696Z,26.42
2022-08-25T11:06:04.583Z,26.52
2022-08-25T11:07:13.170Z,26.61
2022-08-25T11:08:22.225Z,26.69
2022-08-25T11:09:30.217Z,26.71
2022-08-25T11:10:39.512Z,26.78
2022-08-25T11:11:50.775Z,26.85
2022-08-25T11:12:58.076Z,26.91
2022-08-25T11:14:09.247Z,27.01
2022-08-25T11:15:21.322Z,27.11
2022-08-25T11:16:35.991Z,27.21
2022-08-25T11:17:50.346Z,27.32
2022-08-25T11:18:59.581Z,27.41
2022-08-25T11:20:08.574Z,27.51
2022-08-25T11:21:16.638Z,27.60
2022-08-25T11:22:25.829Z,27.70
2022-08-25T11:23:35.298Z,27.78
2022-08-25T11:24:54.109Z,27.85
2022-08-25T11:26:00.535Z,27.88
2022-08-25T11:27:07.511Z,27.92
2022-08-25T11:28:13.528Z,27.97
2022-08-25T11:29:21.115Z,28.00
2022-08-25T11:30:23.842Z,28.07
2022-08-25T11:31:29.949Z,28.12
2022-08-25T11:32:35.586Z,28.14
2022-08-25T11:33:39.388Z,28.13
2022-08-25T11:34:43.785Z,28.11
2022-08-25T11:35:51.144Z,28.10
2022-08-25T11:36:59.820Z,28.08
2022-08-25T11:38:21.601Z,28.06
2022-08-25T11:39:44.302Z,28.00
2022-08-25T11:41:00.370Z,27.95
2022-08-25T11:42:15.059Z,27.87
2022-08-25T11:43:35.936Z,27.77
2022-08-25T11:44:54.022Z,27.69
2022-08-25T11:46:27.677Z,27.58
2022-08-25T11:48:05.329Z,27.50
2022-08-25T11:49:51.104Z,27.46
2022-08-25T11:51:01.815Z,27.48
2022-08-25T11:52:07.443Z,27.51
2022-08-25T11:53:26.651Z,27.55
2022-08-25T11:54:35.358Z,27.56
2022-08-25T11:55:50.692Z,27.63
2022-08-25T11:56:58.816Z,27.69
2022-08-25T11:58:35.578Z,27.75
2022-08-25T12:00:12.419Z,27.76
2022-08-25T12:02:04.172Z,27.73
2022-08-25T12:03:40.535Z,27.71
2022-08-25T12:04:45.388Z,27.73
2022-08-25T12:05:52.410Z,27.80
2022-08-25T12:07:21.985Z,27.91
2022-08-25T12:08:49.786Z,28.03
2022-08-25T12:10:20.741Z,28.18
2022-08-25T12:11:48.233Z,28.33
2022-08-25T12:13:02.309Z,28.44
2022-08-25T12:14:18.583Z,28.51
2022-08-25T12:15:23.675Z,28.58
2022-08-25T12:16:40.153Z,28.62
2022-08-25T12:17:43.485Z,28.63
2022-08-25T12:18:46.487Z,28.63
2022-08-25T12:19:57.278Z,28.62
2022-08-25T12:21:23.994Z,28.64
2022-08-25T12:22:56.887Z,28.69
2022-08-25T12:24:16.498Z,28.76
2022-08-25T12:25:55.235Z,28.84
2022-08-25T12:27:00.999Z,28.92
2022-08-25T12:28:15.290Z,28.98
2022-08-25T12:29:28.237Z,28.95
2022-08-25T12:30:45.760Z,28.97
2022-08-25T12:32:04.629Z,28.92
2022-08-25T12:33:17.603Z,28.83
2022-08-25T12:34:39.248Z,28.85
2022-08-25T12:35:56.260Z,28.81
2022-08-25T12:37:06.427Z,28.79
2022-08-25T12:38:13.788Z,28.78
2022-08-25T12:39:24.572Z,28.80
2022-08-25T12:40:32.416Z,28.86
2022-08-25T12:41:36.191Z,28.90
2022-08-25T12:42:43.386Z,28.91
2022-08-25T12:43:51.621Z,28.87
2022-08-25T12:45:16.074Z,28.80
2022-08-25T12:46:39.509Z,28.68
2022-08-25T12:47:44.723Z,28.58
2022-08-25T12:49:12.146Z,28.48
2022-08-25T12:50:37.445Z,28.39
2022-08-25T12:51:59.203Z,28.42
2022-08-25T12:53:11.262Z,28.47
2022-08-25T12:54:22.583Z,28.52
2022-08-25T12:55:26.485Z,28.58
2022-08-25T12:56:39.181Z,28.61
2022-08-25T12:57:44.794Z,28.65
2022-08-25T12:59:00.970Z,28.68
2022-08-25T13:00:16.825Z,28.73
2022-08-25T13:01:36.372Z,28.76
2022-08-25T13:03:21.796Z,28.73
2022-08-25T13:05:15.619Z,28.64
2022-08-25T13:06:46.684Z,28.56
2022-08-25T13:08:15.147Z,28.50
2022-08-25T13:09:58.878Z,28.40
2022-08-25T13:11:09.186Z,28.32
2022-08-25T13:12:18.426Z,28.31
2022-08-25T13:13:39.078Z,28.38
2022-08-25T13:14:44.061Z,28.53
2022-08-25T13:15:58.465Z,28.71
2022-08-25T13:17:01.126Z,28.91
2022-08-25T13:18:23.342Z,29.03
2022-08-25T13:19:28.004Z,29.11
2022-08-25T13:20:37.200Z,29.11
2022-08-25T13:21:43.404Z,29.09
2022-08-25T13:22:48.067Z,29.01
2022-08-25T13:23:54.886Z,28.93
2022-08-25T13:25:07.419Z,28.85
2022-08-25T13:26:15.233Z,28.75
2022-08-25T13:27:22.845Z,28.72
2022-08-25T13:28:30.456Z,28.71
2022-08-25T13:29:37.422Z,28.76
2022-08-25T13:30:42.837Z,28.88
2022-08-25T13:31:55.377Z,29.09
2022-08-25T13:32:58.027Z,29.29
2022-08-25T13:34:06.318Z,29.46
2022-08-25T13:35:14.686Z,29.69
2022-08-25T13:36:41.310Z,29.80
2022-08-25T13:37:48.082Z,29.82
2022-08-25T13:38:50.447Z,29.83
2022-08-25T13:40:10.165Z,29.86
2022-08-25T13:41:18.420Z,29.91
2022-08-25T13:42:23.942Z,30.00
2022-08-25T13:43:31.132Z,30.16
2022-08-25T13:44:39.020Z,30.38
2022-08-25T13:45:43.642Z,30.60
2022-08-25T13:46:47.530Z,30.79
2022-08-25T13:47:56.081Z,30.89
2022-08-25T13:49:27.740Z,30.97
2022-08-25T13:50:34.732Z,30.98
2022-08-25T13:51:41.659Z,30.97
2022-08-25T13:52:49.053Z,30.96
2022-08-25T13:53:56.677Z,30.92
2022-08-25T13:55:04.555Z,30.89
2022-08-25T13:56:07.657Z,30.85
2022-08-25T13:57:18.471Z,30.80
2022-08-25T13:58:38.631Z,30.73
2022-08-25T13:59:51.586Z,30.73
2022-08-25T14:01:19.963Z,30.73
2022-08-25T14:02:44.032Z,30.71
2022-08-25T14:03:47.259Z,30.70
2022-08-25T14:04:52.752Z,30.65
2022-08-25T14:06:07.442Z,30.41
2022-08-25T14:07:26.482Z,30.49
2022-08-25T14:08:33.848Z,30.35
2022-08-25T14:09:46.645Z,30.20
2022-08-25T14:10:49.808Z,30.04
2022-08-25T14:11:58.391Z,29.88
2022-08-25T14:13:31.947Z,29.71
2022-08-25T14:14:36.164Z,29.61
2022-08-25T14:15:41.666Z,29.56
2022-08-25T14:16:49.211Z,29.52
2022-08-25T14:18:05.634Z,29.49
2022-08-25T14:19:19.871Z,29.53
2022-08-25T14:20:29.142Z,29.54
2022-08-25T14:21:34.594Z,29.49
2022-08-25T14:22:38.502Z,29.46
2022-08-25T14:23:45.618Z,29.45
2022-08-25T14:24:47.941Z,29.37
2022-08-25T14:25:51.848Z,29.33
2022-08-25T14:26:54.920Z,29.26
2022-08-25T14:28:08.137Z,29.19
2022-08-25T14:29:11.682Z,29.16
2022-08-25T14:30:14.957Z,29.13
2022-08-25T14:31:25.310Z,29.11
2022-08-25T14:32:27.545Z,29.11
2022-08-25T14:33:34.586Z,29.10
2022-08-25T14:34:38.056Z,29.03